Airfield :
LOGIN :

Register | Disclaimer

   EN    FR    IT 

 










Legend :    VFR   Marginal VFR   IFR   Intensive IFR   Very Intensive IFR
Visi :
Ceiling :
>= 8 km
>= 3000ft
5 to 8 km
1000 to 3000 ft
1500m to 5 km
500 to 1000 ft
800 to 1500m
200 to 500 ft
< 800m
< 200 ft
Symbols :   Thunderstorms  Fog  Heavy snow  Heavy precipitations  Wind > 20 kt
SIGMETs :     Misc.  Thunderstorms  Icing  Turbulence  Mountain Waves  Volcanic Ashes






- Airport Elevation : -15 ft
- IATA code : RTM


EHRD - Rotterdam Zestienhoven

CURRENT METAR :
  • 112125Z AUTO 19013KT 160V220 9999 FEW007 BKN012 OVC016 06/05 Q1002 BECMG BKN020

EXPIRED METARs :
  • 112055Z AUTO 19011KT 160V220 9999 SCT007 SCT009 BKN010 06/05 Q1002 BECMG BKN020
  • 112025Z AUTO 18009KT 150V220 9999 BKN007 BKN008 OVC013 06/05 Q1002 BECMG BKN020
  • 111955Z AUTO 19009KT 150V220 9999 FEW011 BKN015 OVC018 06/05 Q1002 NOSIG
  • 111925Z AUTO 19009KT 170V230 9999 SCT039 BKN044 06/05 Q1002 NOSIG
  • 111855Z AUTO 19008KT 9999 NSC 06/05 Q1003 NOSIG
  • 111825Z AUTO 19008KT 9000 NSC 06/05 Q1003 NOSIG

TAF COR TAF EHRD
Valid from the 11 at 18:00 until the 13 at 00:00 UTC


111901Z 1118/1224 18010KT 9999 SCT025
PROB30
TEMPO 1118/1121 6000 BKN012
TEMPO 1123/1204 6000 RA SHRA SCT008 BKN012 FEW018CB
BECMG 1201/1204 26010KT
BECMG 1206/1209 20008KT
BECMG 1215/1218 17016KT
BECMG 1219/1222 16018G28KT 6000 RA SCT007 BKN012
TEMPO 1221/1224 4000 RADZ BKN007



MET'MAP, your aeronautical weather chart ! - Copyright ORBIFLY December 2007 - Disclaimer

ORBIFLY MET'MAP TEAM :

Programming & Development : Alexandra Zaïnal
Concept & original design : Baudouin d'Aumeries
Assistance for programming : Marc-Olivier Méhu
Technical & hardware support : Manuel Goepfert

Contact : metmap@orbifly.com




SOURCES & CREDITS :

   NOAA